sensor_id;sensor_type;location;lat;lon;timestamp;temperature;humidity
47414;DHT22;33163;0.000;0.000;2023-08-20T00:00:00;23.50;78.00
47414;DHT22;33163;0.000;0.000;2023-08-20T00:02:31;23.50;78.00
47414;DHT22;33163;0.000;0.000;2023-08-20T00:04:58;23.50;78.00
47414;DHT22;33163;0.000;0.000;2023-08-20T00:07:25;23.50;78.00
47414;DHT22;33163;0.000;0.000;2023-08-20T00:09:53;23.50;78.00
47414;DHT22;33163;0.000;0.000;2023-08-20T00:12:19;23.50;78.00
47414;DHT22;33163;0.000;0.000;2023-08-20T00:14:54;23.50;78.00
47414;DHT22;33163;0.000;0.000;2023-08-20T00:17:24;23.50;78.00
47414;DHT22;33163;0.000;0.000;2023-08-20T00:19:54;23.50;78.00
47414;DHT22;33163;0.000;0.000;2023-08-20T00:22:22;23.50;78.10
47414;DHT22;33163;0.000;0.000;2023-08-20T00:24:50;23.50;78.10
47414;DHT22;33163;0.000;0.000;2023-08-20T00:27:17;23.40;78.10
47414;DHT22;33163;0.000;0.000;2023-08-20T00:29:44;23.40;78.10
47414;DHT22;33163;0.000;0.000;2023-08-20T00:32:10;23.40;78.10
47414;DHT22;33163;0.000;0.000;2023-08-20T00:34:37;23.50;78.20
47414;DHT22;33163;0.000;0.000;2023-08-20T00:37:06;23.40;78.10
47414;DHT22;33163;0.000;0.000;2023-08-20T00:39:33;23.40;78.10
47414;DHT22;33163;0.000;0.000;2023-08-20T00:42:00;23.40;78.10
47414;DHT22;33163;0.000;0.000;2023-08-20T00:44:27;23.50;78.20
47414;DHT22;33163;0.000;0.000;2023-08-20T00:46:55;23.50;78.10
47414;DHT22;33163;0.000;0.000;2023-08-20T00:49:22;23.40;78.10
47414;DHT22;33163;0.000;0.000;2023-08-20T00:51:49;23.50;78.20
47414;DHT22;33163;0.000;0.000;2023-08-20T00:54:18;23.40;78.10
47414;DHT22;33163;0.000;0.000;2023-08-20T00:56:45;23.50;78.20
47414;DHT22;33163;0.000;0.000;2023-08-20T00:59:12;23.40;78.20
47414;DHT22;33163;0.000;0.000;2023-08-20T01:01:39;23.40;78.20
47414;DHT22;33163;0.000;0.000;2023-08-20T01:04:06;23.40;78.30
47414;DHT22;33163;0.000;0.000;2023-08-20T01:06:42;23.40;78.20
47414;DHT22;33163;0.000;0.000;2023-08-20T01:09:17;23.40;78.30
47414;DHT22;33163;0.000;0.000;2023-08-20T01:11:54;23.40;78.30
47414;DHT22;33163;0.000;0.000;2023-08-20T01:14:22;23.40;78.30
47414;DHT22;33163;0.000;0.000;2023-08-20T01:16:49;23.40;78.30
47414;DHT22;33163;0.000;0.000;2023-08-20T01:19:18;23.40;78.30
47414;DHT22;33163;0.000;0.000;2023-08-20T01:21:56;23.40;78.30
47414;DHT22;33163;0.000;0.000;2023-08-20T01:24:38;23.40;78.40
47414;DHT22;33163;0.000;0.000;2023-08-20T01:27:26;23.40;78.40
47414;DHT22;33163;0.000;0.000;2023-08-20T01:29:56;23.40;78.40
47414;DHT22;33163;0.000;0.000;2023-08-20T01:32:24;23.40;78.40
47414;DHT22;33163;0.000;0.000;2023-08-20T01:34:52;23.40;78.40
47414;DHT22;33163;0.000;0.000;2023-08-20T01:37:19;23.40;78.40
47414;DHT22;33163;0.000;0.000;2023-08-20T01:39:46;23.40;78.40
47414;DHT22;33163;0.000;0.000;2023-08-20T01:42:12;23.40;78.40
47414;DHT22;33163;0.000;0.000;2023-08-20T01:44:39;23.40;78.40
47414;DHT22;33163;0.000;0.000;2023-08-20T01:47:07;23.40;78.40
47414;DHT22;33163;0.000;0.000;2023-08-20T01:49:34;23.40;78.50
47414;DHT22;33163;0.000;0.000;2023-08-20T01:52:01;23.40;78.50
47414;DHT22;33163;0.000;0.000;2023-08-20T01:54:29;23.40;78.40
47414;DHT22;33163;0.000;0.000;2023-08-20T01:56:56;23.40;78.50
47414;DHT22;33163;0.000;0.000;2023-08-20T01:59:23;23.40;78.50
47414;DHT22;33163;0.000;0.000;2023-08-20T02:01:49;23.40;78.50
47414;DHT22;33163;0.000;0.000;2023-08-20T02:04:17;23.40;78.50
47414;DHT22;33163;0.000;0.000;2023-08-20T02:06:44;23.40;78.50
47414;DHT22;33163;0.000;0.000;2023-08-20T02:09:11;23.40;78.60
47414;DHT22;33163;0.000;0.000;2023-08-20T02:11:38;23.40;78.60
47414;DHT22;33163;0.000;0.000;2023-08-20T02:14:05;23.40;78.60
47414;DHT22;33163;0.000;0.000;2023-08-20T02:16:32;23.40;78.60
47414;DHT22;33163;0.000;0.000;2023-08-20T02:18:58;23.40;78.60
47414;DHT22;33163;0.000;0.000;2023-08-20T02:21:27;23.40;78.60
47414;DHT22;33163;0.000;0.000;2023-08-20T02:23:54;23.40;78.60
47414;DHT22;33163;0.000;0.000;2023-08-20T02:26:21;23.40;78.60
47414;DHT22;33163;0.000;0.000;2023-08-20T02:28:47;23.40;78.60
47414;DHT22;33163;0.000;0.000;2023-08-20T02:31:14;23.40;78.60
47414;DHT22;33163;0.000;0.000;2023-08-20T02:33:41;23.40;78.60
47414;DHT22;33163;0.000;0.000;2023-08-20T02:36:08;23.40;78.60
47414;DHT22;33163;0.000;0.000;2023-08-20T02:38:36;23.40;78.60
47414;DHT22;33163;0.000;0.000;2023-08-20T02:41:02;23.40;78.60
47414;DHT22;33163;0.000;0.000;2023-08-20T02:43:29;23.40;78.70
47414;DHT22;33163;0.000;0.000;2023-08-20T02:45:56;23.40;78.70
47414;DHT22;33163;0.000;0.000;2023-08-20T02:48:23;23.40;78.70
47414;DHT22;33163;0.000;0.000;2023-08-20T02:50:52;23.40;78.70
47414;DHT22;33163;0.000;0.000;2023-08-20T02:53:19;23.40;78.70
47414;DHT22;33163;0.000;0.000;2023-08-20T02:55:47;23.30;78.60
47414;DHT22;33163;0.000;0.000;2023-08-20T02:58:14;23.30;78.70
47414;DHT22;33163;0.000;0.000;2023-08-20T03:00:42;23.30;78.70
47414;DHT22;33163;0.000;0.000;2023-08-20T03:03:09;23.30;78.70
47414;DHT22;33163;0.000;0.000;2023-08-20T03:05:36;23.30;78.70
47414;DHT22;33163;0.000;0.000;2023-08-20T03:08:03;23.30;78.70
47414;DHT22;33163;0.000;0.000;2023-08-20T03:10:30;23.30;78.70
47414;DHT22;33163;0.000;0.000;2023-08-20T03:12:59;23.30;78.70
47414;DHT22;33163;0.000;0.000;2023-08-20T03:15:26;23.30;78.70
47414;DHT22;33163;0.000;0.000;2023-08-20T03:17:53;23.30;78.70
47414;DHT22;33163;0.000;0.000;2023-08-20T03:20:19;23.30;78.70
47414;DHT22;33163;0.000;0.000;2023-08-20T03:22:46;23.30;78.80
47414;DHT22;33163;0.000;0.000;2023-08-20T03:25:13;23.30;78.70
47414;DHT22;33163;0.000;0.000;2023-08-20T03:27:40;23.30;78.70
47414;DHT22;33163;0.000;0.000;2023-08-20T03:30:09;23.30;78.70
47414;DHT22;33163;0.000;0.000;2023-08-20T03:32:36;23.30;78.80
47414;DHT22;33163;0.000;0.000;2023-08-20T03:35:04;23.30;78.70
47414;DHT22;33163;0.000;0.000;2023-08-20T03:37:31;23.30;78.80
47414;DHT22;33163;0.000;0.000;2023-08-20T03:39:57;23.30;78.80
47414;DHT22;33163;0.000;0.000;2023-08-20T03:42:24;23.30;78.80
47414;DHT22;33163;0.000;0.000;2023-08-20T03:44:51;23.30;78.80
47414;DHT22;33163;0.000;0.000;2023-08-20T03:47:19;23.30;78.80
47414;DHT22;33163;0.000;0.000;2023-08-20T03:49:46;23.30;78.80
47414;DHT22;33163;0.000;0.000;2023-08-20T03:52:13;23.30;78.90
47414;DHT22;33163;0.000;0.000;2023-08-20T03:54:40;23.30;78.80
47414;DHT22;33163;0.000;0.000;2023-08-20T03:57:07;23.30;78.80
47414;DHT22;33163;0.000;0.000;2023-08-20T03:59:34;23.30;78.80
47414;DHT22;33163;0.000;0.000;2023-08-20T04:02:01;23.30;78.90
47414;DHT22;33163;0.000;0.000;2023-08-20T04:04:29;23.30;78.90
47414;DHT22;33163;0.000;0.000;2023-08-20T04:06:57;23.30;78.80
47414;DHT22;33163;0.000;0.000;2023-08-20T04:09:23;23.30;78.80
47414;DHT22;33163;0.000;0.000;2023-08-20T04:11:50;23.30;78.80
47414;DHT22;33163;0.000;0.000;2023-08-20T04:14:17;23.30;78.90
47414;DHT22;33163;0.000;0.000;2023-08-20T04:16:44;23.30;78.90
47414;DHT22;33163;0.000;0.000;2023-08-20T04:19:11;23.30;78.90
47414;DHT22;33163;0.000;0.000;2023-08-20T04:21:39;23.30;78.90
47414;DHT22;33163;0.000;0.000;2023-08-20T04:24:06;23.30;78.90
47414;DHT22;33163;0.000;0.000;2023-08-20T04:26:33;23.30;78.90
47414;DHT22;33163;0.000;0.000;2023-08-20T04:29:00;23.30;78.90
47414;DHT22;33163;0.000;0.000;2023-08-20T04:31:26;23.30;78.90
47414;DHT22;33163;0.000;0.000;2023-08-20T04:33:53;23.30;78.90
47414;DHT22;33163;0.000;0.000;2023-08-20T04:36:20;23.20;78.80
47414;DHT22;33163;0.000;0.000;2023-08-20T04:38:48;23.20;78.90
47414;DHT22;33163;0.000;0.000;2023-08-20T04:41:15;23.30;78.90
47414;DHT22;33163;0.000;0.000;2023-08-20T04:43:41;23.20;78.90
47414;DHT22;33163;0.000;0.000;2023-08-20T04:46:08;23.20;78.90
47414;DHT22;33163;0.000;0.000;2023-08-20T04:48:35;23.20;78.90
47414;DHT22;33163;0.000;0.000;2023-08-20T04:51:02;23.20;78.90
47414;DHT22;33163;0.000;0.000;2023-08-20T04:53:29;23.20;79.50
47414;DHT22;33163;0.000;0.000;2023-08-20T04:55:58;23.30;79.00
47414;DHT22;33163;0.000;0.000;2023-08-20T04:58:25;23.20;78.90
47414;DHT22;33163;0.000;0.000;2023-08-20T05:00:51;23.20;78.90
47414;DHT22;33163;0.000;0.000;2023-08-20T05:03:18;23.20;78.90
47414;DHT22;33163;0.000;0.000;2023-08-20T05:05:48;23.20;78.90
47414;DHT22;33163;0.000;0.000;2023-08-20T05:08:15;23.20;78.90
47414;DHT22;33163;0.000;0.000;2023-08-20T05:10:42;23.20;78.90
47414;DHT22;33163;0.000;0.000;2023-08-20T05:13:10;23.20;78.90
47414;DHT22;33163;0.000;0.000;2023-08-20T05:15:37;23.20;78.90
47414;DHT22;33163;0.000;0.000;2023-08-20T05:18:04;23.20;79.30
47414;DHT22;33163;0.000;0.000;2023-08-20T05:20:31;23.20;78.90
47414;DHT22;33163;0.000;0.000;2023-08-20T05:22:58;23.20;79.00
47414;DHT22;33163;0.000;0.000;2023-08-20T05:25:24;23.20;79.00
47414;DHT22;33163;0.000;0.000;2023-08-20T05:27:51;23.20;79.00
47414;DHT22;33163;0.000;0.000;2023-08-20T05:30:19;23.20;78.90
47414;DHT22;33163;0.000;0.000;2023-08-20T05:32:46;23.20;79.00
47414;DHT22;33163;0.000;0.000;2023-08-20T05:35:13;23.20;79.00
47414;DHT22;33163;0.000;0.000;2023-08-20T05:37:40;23.20;79.00
47414;DHT22;33163;0.000;0.000;2023-08-20T05:40:07;23.20;79.00
47414;DHT22;33163;0.000;0.000;2023-08-20T05:42:35;23.20;79.00
47414;DHT22;33163;0.000;0.000;2023-08-20T05:45:02;23.20;79.00
47414;DHT22;33163;0.000;0.000;2023-08-20T05:47:30;23.20;79.10
47414;DHT22;33163;0.000;0.000;2023-08-20T05:49:57;23.20;79.00
47414;DHT22;33163;0.000;0.000;2023-08-20T05:52:23;23.20;79.10
47414;DHT22;33163;0.000;0.000;2023-08-20T05:54:50;23.20;79.10
47414;DHT22;33163;0.000;0.000;2023-08-20T05:57:17;23.20;79.80
47414;DHT22;33163;0.000;0.000;2023-08-20T05:59:44;23.20;79.20
47414;DHT22;33163;0.000;0.000;2023-08-20T06:02:16;23.20;79.20
47414;DHT22;33163;0.000;0.000;2023-08-20T06:04:45;23.20;79.20
47414;DHT22;33163;0.000;0.000;2023-08-20T06:07:11;23.20;79.30
47414;DHT22;33163;0.000;0.000;2023-08-20T06:09:38;23.20;79.30
47414;DHT22;33163;0.000;0.000;2023-08-20T06:12:05;23.20;79.30
47414;DHT22;33163;0.000;0.000;2023-08-20T06:14:32;23.20;79.30
47414;DHT22;33163;0.000;0.000;2023-08-20T06:16:59;23.20;79.40
47414;DHT22;33163;0.000;0.000;2023-08-20T06:19:26;23.20;79.40
47414;DHT22;33163;0.000;0.000;2023-08-20T06:21:54;23.20;79.50
47414;DHT22;33163;0.000;0.000;2023-08-20T06:24:21;23.20;79.50
47414;DHT22;33163;0.000;0.000;2023-08-20T06:26:47;23.20;79.50
47414;DHT22;33163;0.000;0.000;2023-08-20T06:29:14;23.20;79.60
47414;DHT22;33163;0.000;0.000;2023-08-20T06:31:41;23.20;79.60
47414;DHT22;33163;0.000;0.000;2023-08-20T06:34:08;23.20;79.60
47414;DHT22;33163;0.000;0.000;2023-08-20T06:36:35;23.20;79.60
47414;DHT22;33163;0.000;0.000;2023-08-20T06:39:04;23.20;79.60
47414;DHT22;33163;0.000;0.000;2023-08-20T06:41:30;23.20;79.60
47414;DHT22;33163;0.000;0.000;2023-08-20T06:43:57;23.20;79.70
47414;DHT22;33163;0.000;0.000;2023-08-20T06:46:24;23.20;79.70
47414;DHT22;33163;0.000;0.000;2023-08-20T06:48:51;23.20;79.70
47414;DHT22;33163;0.000;0.000;2023-08-20T06:51:20;23.20;79.70
47414;DHT22;33163;0.000;0.000;2023-08-20T06:53:47;23.20;79.70
47414;DHT22;33163;0.000;0.000;2023-08-20T06:56:15;23.30;79.80
47414;DHT22;33163;0.000;0.000;2023-08-20T06:58:42;23.20;79.80
47414;DHT22;33163;0.000;0.000;2023-08-20T07:01:09;23.20;79.80
47414;DHT22;33163;0.000;0.000;2023-08-20T07:03:38;23.30;79.90
47414;DHT22;33163;0.000;0.000;2023-08-20T07:06:06;23.30;79.90
47414;DHT22;33163;0.000;0.000;2023-08-20T07:08:34;23.30;79.90
47414;DHT22;33163;0.000;0.000;2023-08-20T07:11:02;23.30;80.00
47414;DHT22;33163;0.000;0.000;2023-08-20T07:13:30;23.30;80.00
47414;DHT22;33163;0.000;0.000;2023-08-20T07:15:57;23.30;80.10
47414;DHT22;33163;0.000;0.000;2023-08-20T07:18:23;23.30;80.10
47414;DHT22;33163;0.000;0.000;2023-08-20T07:20:51;23.30;80.10
47414;DHT22;33163;0.000;0.000;2023-08-20T07:23:17;23.30;80.20
47414;DHT22;33163;0.000;0.000;2023-08-20T07:25:44;23.30;80.80
47414;DHT22;33163;0.000;0.000;2023-08-20T07:28:12;23.30;80.20
47414;DHT22;33163;0.000;0.000;2023-08-20T07:30:40;23.30;80.30
47414;DHT22;33163;0.000;0.000;2023-08-20T07:33:07;23.30;80.30
47414;DHT22;33163;0.000;0.000;2023-08-20T07:35:34;23.30;80.30
47414;DHT22;33163;0.000;0.000;2023-08-20T07:38:01;23.30;80.30
47414;DHT22;33163;0.000;0.000;2023-08-20T07:40:28;23.30;80.40
47414;DHT22;33163;0.000;0.000;2023-08-20T07:42:54;23.30;80.40
47414;DHT22;33163;0.000;0.000;2023-08-20T07:45:21;23.30;80.40
47414;DHT22;33163;0.000;0.000;2023-08-20T07:47:49;23.30;80.40
47414;DHT22;33163;0.000;0.000;2023-08-20T07:50:16;23.30;80.40
47414;DHT22;33163;0.000;0.000;2023-08-20T07:52:43;23.40;80.60
47414;DHT22;33163;0.000;0.000;2023-08-20T07:55:10;23.40;80.50
47414;DHT22;33163;0.000;0.000;2023-08-20T07:57:36;23.40;80.50
47414;DHT22;33163;0.000;0.000;2023-08-20T08:00:04;23.40;80.60
47414;DHT22;33163;0.000;0.000;2023-08-20T08:02:32;23.40;80.50
47414;DHT22;33163;0.000;0.000;2023-08-20T08:05:00;23.40;80.50
47414;DHT22;33163;0.000;0.000;2023-08-20T08:07:27;23.40;80.50
47414;DHT22;33163;0.000;0.000;2023-08-20T08:09:54;23.40;80.50
47414;DHT22;33163;0.000;0.000;2023-08-20T08:12:20;23.40;80.40
47414;DHT22;33163;0.000;0.000;2023-08-20T08:14:48;23.50;80.50
47414;DHT22;33163;0.000;0.000;2023-08-20T08:17:14;23.50;80.50
47414;DHT22;33163;0.000;0.000;2023-08-20T08:19:41;23.50;80.50
47414;DHT22;33163;0.000;0.000;2023-08-20T08:22:09;23.50;80.30
47414;DHT22;33163;0.000;0.000;2023-08-20T08:24:36;23.50;80.10
47414;DHT22;33163;0.000;0.000;2023-08-20T08:27:03;23.50;79.90
47414;DHT22;33163;0.000;0.000;2023-08-20T08:29:29;23.50;80.00
47414;DHT22;33163;0.000;0.000;2023-08-20T08:31:56;23.50;80.30
47414;DHT22;33163;0.000;0.000;2023-08-20T08:34:23;23.50;81.10
47414;DHT22;33163;0.000;0.000;2023-08-20T08:36:50;23.50;81.20
47414;DHT22;33163;0.000;0.000;2023-08-20T08:39:18;23.50;80.90
47414;DHT22;33163;0.000;0.000;2023-08-20T08:41:46;23.50;80.60
47414;DHT22;33163;0.000;0.000;2023-08-20T08:44:16;23.50;80.00
47414;DHT22;33163;0.000;0.000;2023-08-20T08:46:43;23.50;79.90
47414;DHT22;33163;0.000;0.000;2023-08-20T08:49:10;23.50;79.60
47414;DHT22;33163;0.000;0.000;2023-08-20T08:51:37;23.50;79.80
47414;DHT22;33163;0.000;0.000;2023-08-20T08:54:05;23.50;80.00
47414;DHT22;33163;0.000;0.000;2023-08-20T08:56:33;23.60;79.60
47414;DHT22;33163;0.000;0.000;2023-08-20T08:59:00;23.50;79.30
47414;DHT22;33163;0.000;0.000;2023-08-20T09:01:28;23.50;78.40
47414;DHT22;33163;0.000;0.000;2023-08-20T09:03:56;23.50;78.60
47414;DHT22;33163;0.000;0.000;2023-08-20T09:06:23;23.60;78.90
47414;DHT22;33163;0.000;0.000;2023-08-20T09:08:50;23.60;78.80
47414;DHT22;33163;0.000;0.000;2023-08-20T09:11:17;23.60;79.00
47414;DHT22;33163;0.000;0.000;2023-08-20T09:13:45;23.70;79.00
47414;DHT22;33163;0.000;0.000;2023-08-20T09:16:11;23.70;78.50
47414;DHT22;33163;0.000;0.000;2023-08-20T09:18:39;23.70;78.60
47414;DHT22;33163;0.000;0.000;2023-08-20T09:21:07;23.70;78.40
47414;DHT22;33163;0.000;0.000;2023-08-20T09:23:35;23.70;78.00
47414;DHT22;33163;0.000;0.000;2023-08-20T09:26:02;23.80;78.30
47414;DHT22;33163;0.000;0.000;2023-08-20T09:28:30;23.80;77.80
47414;DHT22;33163;0.000;0.000;2023-08-20T09:31:08;23.80;77.70
47414;DHT22;33163;0.000;0.000;2023-08-20T09:33:35;23.80;77.50
47414;DHT22;33163;0.000;0.000;2023-08-20T09:36:03;23.90;77.60
47414;DHT22;33163;0.000;0.000;2023-08-20T09:38:30;23.90;77.10
47414;DHT22;33163;0.000;0.000;2023-08-20T09:41:03;23.90;77.30
47414;DHT22;33163;0.000;0.000;2023-08-20T09:43:33;23.90;76.80
47414;DHT22;33163;0.000;0.000;2023-08-20T09:46:04;23.90;76.90
47414;DHT22;33163;0.000;0.000;2023-08-20T09:48:34;23.90;76.70
47414;DHT22;33163;0.000;0.000;2023-08-20T09:51:04;23.90;77.10
47414;DHT22;33163;0.000;0.000;2023-08-20T09:53:36;24.00;77.30
47414;DHT22;33163;0.000;0.000;2023-08-20T09:56:09;24.00;77.40
47414;DHT22;33163;0.000;0.000;2023-08-20T09:58:49;24.00;77.20
47414;DHT22;33163;0.000;0.000;2023-08-20T10:01:17;24.00;77.10
47414;DHT22;33163;0.000;0.000;2023-08-20T10:03:45;24.00;76.50
47414;DHT22;33163;0.000;0.000;2023-08-20T10:06:12;24.10;76.50
47414;DHT22;33163;0.000;0.000;2023-08-20T10:08:39;24.10;76.20
47414;DHT22;33163;0.000;0.000;2023-08-20T10:11:06;24.10;75.50
47414;DHT22;33163;0.000;0.000;2023-08-20T10:13:33;24.10;75.90
47414;DHT22;33163;0.000;0.000;2023-08-20T10:16:00;24.10;76.00
47414;DHT22;33163;0.000;0.000;2023-08-20T10:18:27;24.10;76.10
47414;DHT22;33163;0.000;0.000;2023-08-20T10:20:57;24.20;75.50
47414;DHT22;33163;0.000;0.000;2023-08-20T10:23:24;24.20;75.10
47414;DHT22;33163;0.000;0.000;2023-08-20T10:25:52;24.20;74.80
47414;DHT22;33163;0.000;0.000;2023-08-20T10:28:21;24.20;74.20
47414;DHT22;33163;0.000;0.000;2023-08-20T10:31:05;24.20;74.10
47414;DHT22;33163;0.000;0.000;2023-08-20T10:33:34;24.20;74.40
47414;DHT22;33163;0.000;0.000;2023-08-20T10:36:10;24.20;73.70
47414;DHT22;33163;0.000;0.000;2023-08-20T10:38:37;24.30;73.50
47414;DHT22;33163;0.000;0.000;2023-08-20T10:41:09;24.30;73.40
47414;DHT22;33163;0.000;0.000;2023-08-20T10:43:37;24.20;73.70
47414;DHT22;33163;0.000;0.000;2023-08-20T10:46:13;24.20;74.00
47414;DHT22;33163;0.000;0.000;2023-08-20T10:48:41;24.30;73.90
47414;DHT22;33163;0.000;0.000;2023-08-20T10:51:11;24.30;73.90
47414;DHT22;33163;0.000;0.000;2023-08-20T10:53:39;24.30;73.70
47414;DHT22;33163;0.000;0.000;2023-08-20T10:56:11;24.30;73.40
47414;DHT22;33163;0.000;0.000;2023-08-20T10:58:40;24.40;73.40
47414;DHT22;33163;0.000;0.000;2023-08-20T11:01:19;24.40;72.60
47414;DHT22;33163;0.000;0.000;2023-08-20T11:03:47;24.30;72.90
47414;DHT22;33163;0.000;0.000;2023-08-20T11:06:16;24.30;72.90
47414;DHT22;33163;0.000;0.000;2023-08-20T11:08:44;24.30;73.00
47414;DHT22;33163;0.000;0.000;2023-08-20T11:11:11;24.30;72.50
47414;DHT22;33163;0.000;0.000;2023-08-20T11:13:38;24.40;72.10
47414;DHT22;33163;0.000;0.000;2023-08-20T11:16:06;24.40;72.10
47414;DHT22;33163;0.000;0.000;2023-08-20T11:18:34;24.40;72.40
47414;DHT22;33163;0.000;0.000;2023-08-20T11:21:01;24.40;72.20
47414;DHT22;33163;0.000;0.000;2023-08-20T11:23:29;24.40;72.50
47414;DHT22;33163;0.000;0.000;2023-08-20T11:25:57;24.40;72.20
47414;DHT22;33163;0.000;0.000;2023-08-20T11:28:27;24.40;72.20
47414;DHT22;33163;0.000;0.000;2023-08-20T11:30:55;24.40;72.00
47414;DHT22;33163;0.000;0.000;2023-08-20T11:33:22;24.40;71.90
47414;DHT22;33163;0.000;0.000;2023-08-20T11:35:51;24.40;71.60
47414;DHT22;33163;0.000;0.000;2023-08-20T11:38:20;24.40;70.90
47414;DHT22;33163;0.000;0.000;2023-08-20T11:40:49;24.40;71.60
47414;DHT22;33163;0.000;0.000;2023-08-20T11:43:17;24.50;71.80
47414;DHT22;33163;0.000;0.000;2023-08-20T11:45:47;24.50;71.20
47414;DHT22;33163;0.000;0.000;2023-08-20T11:48:15;24.50;70.70
47414;DHT22;33163;0.000;0.000;2023-08-20T11:50:42;24.50;70.90
47414;DHT22;33163;0.000;0.000;2023-08-20T11:53:09;24.50;71.00
47414;DHT22;33163;0.000;0.000;2023-08-20T11:55:38;24.60;70.70
47414;DHT22;33163;0.000;0.000;2023-08-20T11:58:09;24.50;70.40
47414;DHT22;33163;0.000;0.000;2023-08-20T12:00:36;24.60;70.30
47414;DHT22;33163;0.000;0.000;2023-08-20T12:03:03;24.50;70.90
47414;DHT22;33163;0.000;0.000;2023-08-20T12:05:30;24.50;71.20
47414;DHT22;33163;0.000;0.000;2023-08-20T12:07:58;24.50;71.70
47414;DHT22;33163;0.000;0.000;2023-08-20T12:10:26;24.50;71.20
47414;DHT22;33163;0.000;0.000;2023-08-20T12:12:54;24.50;70.20
47414;DHT22;33163;0.000;0.000;2023-08-20T12:15:24;24.50;70.90
47414;DHT22;33163;0.000;0.000;2023-08-20T12:17:58;24.50;70.60
47414;DHT22;33163;0.000;0.000;2023-08-20T12:20:27;24.50;70.60
47414;DHT22;33163;0.000;0.000;2023-08-20T12:22:54;24.40;70.40
47414;DHT22;33163;0.000;0.000;2023-08-20T12:25:21;24.40;70.50
47414;DHT22;33163;0.000;0.000;2023-08-20T12:27:48;24.40;70.80
47414;DHT22;33163;0.000;0.000;2023-08-20T12:30:15;24.40;70.70
47414;DHT22;33163;0.000;0.000;2023-08-20T12:32:43;24.40;70.80
47414;DHT22;33163;0.000;0.000;2023-08-20T12:35:10;24.40;70.70
47414;DHT22;33163;0.000;0.000;2023-08-20T12:37:36;24.40;70.90
47414;DHT22;33163;0.000;0.000;2023-08-20T12:40:04;24.40;71.00
47414;DHT22;33163;0.000;0.000;2023-08-20T12:42:36;24.40;70.60
47414;DHT22;33163;0.000;0.000;2023-08-20T12:45:04;24.40;70.60
47414;DHT22;33163;0.000;0.000;2023-08-20T12:47:31;24.40;70.80
47414;DHT22;33163;0.000;0.000;2023-08-20T12:49:59;24.40;70.90
47414;DHT22;33163;0.000;0.000;2023-08-20T12:52:25;24.40;71.10
47414;DHT22;33163;0.000;0.000;2023-08-20T12:54:52;24.40;70.80
47414;DHT22;33163;0.000;0.000;2023-08-20T12:57:19;24.40;71.20
47414;DHT22;33163;0.000;0.000;2023-08-20T12:59:46;24.40;71.80
47414;DHT22;33163;0.000;0.000;2023-08-20T13:02:13;24.30;72.00
47414;DHT22;33163;0.000;0.000;2023-08-20T13:04:40;24.30;72.20
47414;DHT22;33163;0.000;0.000;2023-08-20T13:07:12;24.40;71.90
47414;DHT22;33163;0.000;0.000;2023-08-20T13:09:40;24.40;72.90
47414;DHT22;33163;0.000;0.000;2023-08-20T13:12:09;24.30;72.30
47414;DHT22;33163;0.000;0.000;2023-08-20T13:14:38;24.30;72.40
47414;DHT22;33163;0.000;0.000;2023-08-20T13:17:06;24.30;72.30
47414;DHT22;33163;0.000;0.000;2023-08-20T13:19:33;24.30;72.20
47414;DHT22;33163;0.000;0.000;2023-08-20T13:22:00;24.30;71.70
47414;DHT22;33163;0.000;0.000;2023-08-20T13:24:28;24.30;71.90
47414;DHT22;33163;0.000;0.000;2023-08-20T13:26:55;24.40;72.20
47414;DHT22;33163;0.000;0.000;2023-08-20T13:29:22;24.30;71.90
47414;DHT22;33163;0.000;0.000;2023-08-20T13:31:48;24.40;72.90
47414;DHT22;33163;0.000;0.000;2023-08-20T13:34:15;24.40;72.50
47414;DHT22;33163;0.000;0.000;2023-08-20T13:36:42;24.30;72.70
47414;DHT22;33163;0.000;0.000;2023-08-20T13:39:09;24.30;72.80
47414;DHT22;33163;0.000;0.000;2023-08-20T13:41:40;24.30;72.70
47414;DHT22;33163;0.000;0.000;2023-08-20T13:44:07;24.30;72.90
47414;DHT22;33163;0.000;0.000;2023-08-20T13:46:34;24.30;73.00
47414;DHT22;33163;0.000;0.000;2023-08-20T13:49:01;24.30;73.10
47414;DHT22;33163;0.000;0.000;2023-08-20T13:51:28;24.40;72.90
47414;DHT22;33163;0.000;0.000;2023-08-20T13:53:55;24.30;72.80
47414;DHT22;33163;0.000;0.000;2023-08-20T13:56:22;24.30;73.00
47414;DHT22;33163;0.000;0.000;2023-08-20T13:58:51;24.40;72.70
47414;DHT22;33163;0.000;0.000;2023-08-20T14:01:18;24.30;72.80
47414;DHT22;33163;0.000;0.000;2023-08-20T14:03:45;24.40;72.80
47414;DHT22;33163;0.000;0.000;2023-08-20T14:06:12;24.40;73.10
47414;DHT22;33163;0.000;0.000;2023-08-20T14:08:39;24.40;72.40
47414;DHT22;33163;0.000;0.000;2023-08-20T14:11:06;24.40;73.30
47414;DHT22;33163;0.000;0.000;2023-08-20T14:13:32;24.40;72.80
47414;DHT22;33163;0.000;0.000;2023-08-20T14:16:02;24.40;72.90
47414;DHT22;33163;0.000;0.000;2023-08-20T14:18:29;24.30;72.80
47414;DHT22;33163;0.000;0.000;2023-08-20T14:20:56;24.30;72.80
47414;DHT22;33163;0.000;0.000;2023-08-20T14:23:23;24.30;72.80
47414;DHT22;33163;0.000;0.000;2023-08-20T14:25:50;24.30;71.30
47414;DHT22;33163;0.000;0.000;2023-08-20T14:28:19;24.40;72.00
47414;DHT22;33163;0.000;0.000;2023-08-20T14:30:45;24.30;71.50
47414;DHT22;33163;0.000;0.000;2023-08-20T14:33:14;24.30;72.10
47414;DHT22;33163;0.000;0.000;2023-08-20T14:35:40;24.40;72.80
47414;DHT22;33163;0.000;0.000;2023-08-20T14:38:07;24.40;71.50
47414;DHT22;33163;0.000;0.000;2023-08-20T14:40:37;24.30;71.20
47414;DHT22;33163;0.000;0.000;2023-08-20T14:43:05;24.30;71.30
47414;DHT22;33163;0.000;0.000;2023-08-20T14:45:32;24.30;71.70
47414;DHT22;33163;0.000;0.000;2023-08-20T14:47:59;24.30;71.00
47414;DHT22;33163;0.000;0.000;2023-08-20T14:50:27;24.30;71.40
47414;DHT22;33163;0.000;0.000;2023-08-20T14:52:54;24.30;70.90
47414;DHT22;33163;0.000;0.000;2023-08-20T14:55:21;24.30;70.00
47414;DHT22;33163;0.000;0.000;2023-08-20T14:57:48;24.30;70.40
47414;DHT22;33163;0.000;0.000;2023-08-20T15:00:15;24.30;71.00
47414;DHT22;33163;0.000;0.000;2023-08-20T15:02:42;24.30;71.50
47414;DHT22;33163;0.000;0.000;2023-08-20T15:05:10;24.30;70.90
47414;DHT22;33163;0.000;0.000;2023-08-20T15:07:39;24.30;71.10
47414;DHT22;33163;0.000;0.000;2023-08-20T15:10:06;24.30;70.80
47414;DHT22;33163;0.000;0.000;2023-08-20T15:12:34;24.40;69.70
47414;DHT22;33163;0.000;0.000;2023-08-20T15:15:02;24.40;70.00
47414;DHT22;33163;0.000;0.000;2023-08-20T15:17:29;24.40;69.30
47414;DHT22;33163;0.000;0.000;2023-08-20T15:19:56;24.40;69.20
47414;DHT22;33163;0.000;0.000;2023-08-20T15:22:23;24.40;70.20
47414;DHT22;33163;0.000;0.000;2023-08-20T15:24:51;24.40;70.40
47414;DHT22;33163;0.000;0.000;2023-08-20T15:27:18;24.40;70.40
47414;DHT22;33163;0.000;0.000;2023-08-20T15:29:45;24.40;68.90
47414;DHT22;33163;0.000;0.000;2023-08-20T15:32:11;24.40;69.50
47414;DHT22;33163;0.000;0.000;2023-08-20T15:34:38;24.40;70.20
47414;DHT22;33163;0.000;0.000;2023-08-20T15:37:05;24.40;71.00
47414;DHT22;33163;0.000;0.000;2023-08-20T15:39:32;24.40;71.30
47414;DHT22;33163;0.000;0.000;2023-08-20T15:42:01;24.40;71.40
47414;DHT22;33163;0.000;0.000;2023-08-20T15:44:28;24.40;69.50
47414;DHT22;33163;0.000;0.000;2023-08-20T15:46:55;24.40;69.90